Time;durP1;ratioP1;P1;durP2;ratioP2;P2;SDS_P1;SDS_P2;PMS_P1;PMS_P2;Temp;Humidity;BMP_temperature;BMP_pressure;BME280_temperature;BME280_humidity;BME280_pressure;Samples;Min_cycle;Max_cycle;Signal;HPM_P1;HPM_P2
2023/07/17 00:00:11;;;;;;;2.35;2.25;;;19.20;99.90;;;19.58;76.56;101355.50;5053969;28;20092;-74
2023/07/17 00:02:40;;;;;;;2.40;2.30;;;19.20;99.90;;;19.62;76.66;101349.97;5055112;28;20051;-74
2023/07/17 00:05:10;;;;;;;2.40;2.30;;;19.20;99.90;;;19.61;76.43;101360.75;5050797;28;20037;-75
2023/07/17 00:07:41;;;;;;;2.40;2.30;;;19.20;99.90;;;19.48;76.35;101335.25;5051602;28;20127;-75
2023/07/17 00:10:11;;;;;;;3.38;3.28;;;19.20;99.90;;;19.45;76.62;101344.28;5054681;28;20056;-75
2023/07/17 00:12:40;;;;;;;2.53;2.42;;;19.10;99.90;;;19.49;76.67;101353.13;5054568;28;20045;-74
2023/07/17 00:15:10;;;;;;;2.65;2.55;;;19.10;99.90;;;19.51;76.54;101353.97;5054520;28;20490;-75
2023/07/17 00:17:38;;;;;;;2.55;2.45;;;19.10;99.90;;;19.54;76.51;101351.16;5054576;28;20049;-74
2023/07/17 00:20:11;;;;;;;2.85;2.75;;;19.10;99.90;;;19.47;76.81;101347.78;5053375;28;20397;-75
2023/07/17 00:22:41;;;;;;;2.58;2.47;;;19.10;99.90;;;19.48;76.69;101352.25;5050747;28;20049;-74
2023/07/17 00:25:11;;;;;;;2.72;2.63;;;19.10;99.90;;;19.45;76.81;101362.22;5054728;28;20041;-74
2023/07/17 00:27:39;;;;;;;2.97;2.88;;;19.00;99.90;;;19.47;76.84;101352.31;5054387;28;20048;-72
2023/07/17 00:30:08;;;;;;;3.05;2.95;;;19.10;99.90;;;19.47;76.90;101363.88;5054175;28;20057;-74
2023/07/17 00:32:37;;;;;;;2.63;2.53;;;19.10;99.90;;;19.46;76.96;101361.25;5052133;28;20053;-75
2023/07/17 00:35:09;;;;;;;3.33;3.22;;;19.10;99.90;;;19.39;77.21;101362.41;5069924;28;20100;-74
2023/07/17 00:37:37;;;;;;;2.83;2.72;;;19.00;99.90;;;19.41;77.26;101361.44;5054234;28;20045;-74
2023/07/17 00:40:09;;;;;;;2.75;2.65;;;19.00;99.90;;;19.41;77.48;101361.44;5054173;28;20055;-74
2023/07/17 00:42:38;;;;;;;2.83;2.72;;;19.00;99.90;;;19.41;77.48;101360.56;5054378;28;20453;-74
2023/07/17 00:45:07;;;;;;;2.45;2.35;;;19.00;99.90;;;19.41;77.52;101358.75;5050658;28;20061;-74
2023/07/17 00:47:37;;;;;;;3.33;3.13;;;19.00;99.90;;;19.42;77.35;101360.50;5069592;28;20041;-75
2023/07/17 00:50:06;;;;;;;2.90;2.80;;;19.00;99.90;;;19.42;77.47;101362.28;5054160;28;20393;-75
2023/07/17 00:52:35;;;;;;;2.60;2.50;;;19.00;99.90;;;19.43;77.52;101364.94;5054134;28;20464;-74
2023/07/17 00:55:05;;;;;;;2.40;2.30;;;19.00;99.90;;;19.42;77.43;101368.53;5054045;28;20107;-75
2023/07/17 00:57:35;;;;;;;2.40;2.30;;;19.10;99.90;;;19.43;77.67;101369.44;5052769;28;20055;-75
2023/07/17 01:00:05;;;;;;;2.88;2.78;;;19.00;99.90;;;19.38;77.99;101368.69;5050243;28;20045;-74
2023/07/17 01:02:34;;;;;;;;;;;19.00;99.90;;;19.40;78.06;101374.88;5054219;28;20057;-73
2023/07/17 01:05:02;;;;;;;2.70;2.60;;;19.00;99.90;;;19.34;78.30;101373.28;5052571;28;19955;-74
2023/07/17 01:07:31;;;;;;;2.40;2.30;;;18.90;99.90;;;19.33;78.61;101370.66;5052517;28;20481;-74
2023/07/17 01:10:01;;;;;;;;;;;18.90;99.90;;;19.25;79.02;101378.03;5051973;28;20049;-74
2023/07/17 01:12:32;;;;;;;3.00;2.83;;;18.80;99.90;;;19.22;79.17;101364.72;5053758;28;20382;-74
2023/07/17 01:15:01;;;;;;;2.53;2.42;;;18.80;99.90;;;19.24;79.26;101369.09;5053744;28;20084;-73
2023/07/17 01:17:30;;;;;;;2.38;2.28;;;18.80;99.90;;;19.17;79.59;101369.34;5053930;28;20051;-75
2023/07/17 01:19:58;;;;;;;2.70;2.60;;;18.80;99.90;;;19.12;79.73;101369.50;5040593;28;20049;-74
2023/07/17 01:22:31;;;;;;;2.45;2.35;;;18.70;99.90;;;19.11;80.16;101367.72;5052246;28;20049;-74
2023/07/17 01:25:01;;;;;;;2.30;2.20;;;18.70;99.90;;;19.13;80.23;101378.41;5053528;28;20041;-74
2023/07/17 01:27:29;;;;;;;3.47;2.90;;;18.70;99.90;;;19.12;80.31;101373.97;5051017;28;20077;-74
2023/07/17 01:29:59;;;;;;;2.47;2.38;;;18.70;99.90;;;19.09;80.29;101366.00;5053131;28;20064;-74
2023/07/17 01:32:27;;;;;;;2.50;2.40;;;18.70;99.90;;;19.10;80.17;101366.00;5052025;28;20502;-74
2023/07/17 01:34:56;;;;;;;29.02;4.10;;;18.70;99.90;;;19.10;80.31;101375.84;5068630;28;20076;-75
2023/07/17 01:37:24;;;;;;;2.38;2.28;;;18.70;99.90;;;19.07;80.62;101374.13;5053286;28;20564;-75
2023/07/17 01:39:52;;;;;;;2.80;2.70;;;18.70;99.90;;;19.01;80.42;101368.94;5049480;28;20045;-74
2023/07/17 01:42:22;;;;;;;2.78;2.67;;;18.60;99.90;;;18.98;80.41;101362.81;5053213;28;20068;-75
2023/07/17 01:44:52;;;;;;;2.85;2.75;;;18.60;99.90;;;18.87;80.82;101365.81;5053260;28;20665;-74
2023/07/17 01:47:20;;;;;;;2.90;2.80;;;18.50;99.90;;;18.83;81.02;101372.22;5053096;28;20045;-74
2023/07/17 01:49:52;;;;;;;2.70;2.60;;;18.40;99.90;;;18.87;80.82;101358.63;5051034;28;20049;-74
2023/07/17 01:52:20;;;;;;;2.80;2.70;;;18.50;99.90;;;18.88;80.59;101365.78;5053073;28;20106;-74
2023/07/17 01:54:49;;;;;;;3.20;2.90;;;18.50;99.90;;;18.87;80.54;101364.00;5052976;28;20475;-74
2023/07/17 01:57:17;;;;;;;2.60;2.50;;;18.50;99.90;;;18.91;80.39;101365.66;5052967;28;20387;-74
2023/07/17 01:59:47;;;;;;;2.58;2.47;;;18.50;99.90;;;18.89;80.05;101362.16;5047673;28;20398;-74
2023/07/17 02:02:15;;;;;;;2.92;2.83;;;18.50;99.90;;;18.84;79.92;101366.78;5051637;28;20110;-74
2023/07/17 02:04:44;;;;;;;2.70;2.60;;;18.50;99.90;;;18.86;79.74;101362.25;5052644;28;20049;-72
2023/07/17 02:07:12;;;;;;;15.35;7.18;;;18.50;99.90;;;18.88;79.37;101363.09;5051576;28;20048;-74
2023/07/17 02:09:40;;;;;;;2.75;2.65;;;18.50;99.90;;;18.86;79.86;101362.25;5052814;28;20048;-74
2023/07/17 02:12:09;;;;;;;2.97;2.88;;;18.40;99.90;;;18.90;79.67;101358.56;5051486;28;20079;-75
2023/07/17 02:14:38;;;;;;;2.63;2.53;;;18.50;99.90;;;18.97;79.56;101361.91;5052794;28;20055;-75
2023/07/17 02:17:07;;;;;;;3.47;3.28;;;18.50;99.90;;;18.87;79.43;101374.72;5051413;28;20057;-74
2023/07/17 02:19:36;;;;;;;2.60;2.50;;;18.50;99.90;;;18.87;79.73;101365.81;5051502;28;20060;-74
2023/07/17 02:22:05;;;;;;;2.63;2.53;;;18.50;99.90;;;18.92;79.90;101371.91;5053172;28;20072;-74
2023/07/17 02:24:33;;;;;;;2.40;2.30;;;18.50;99.90;;;18.99;79.81;101372.63;5054344;28;20090;-74
2023/07/17 02:27:02;;;;;;;2.60;2.50;;;18.60;99.90;;;18.30;79.87;101254.97;5058009;28;20550;-75
2023/07/17 02:29:31;;;;;;;3.17;3.00;;;18.60;99.90;;;19.04;80.13;101365.28;5059157;28;20119;-73
2023/07/17 02:31:59;;;;;;;2.88;2.78;;;18.70;99.90;;;19.01;80.42;101374.31;5059217;28;20045;-75
2023/07/17 02:34:29;;;;;;;11.20;3.25;;;18.70;99.90;;;18.95;80.95;101374.50;5059212;28;20044;-74
2023/07/17 02:36:57;;;;;;;5.03;3.50;;;18.60;99.90;;;19.01;81.59;101374.31;5059204;28;20045;-74
2023/07/17 02:39:26;;;;;;;3.00;2.90;;;18.60;99.90;;;19.01;81.48;101373.44;5057405;28;20098;-75
2023/07/17 02:41:54;;;;;;;2.75;2.65;;;18.60;99.90;;;19.07;81.36;101376.78;5074552;28;20049;-74
2023/07/17 02:44:23;;;;;;;3.00;2.90;;;18.60;99.90;;;19.05;81.11;101381.31;5057870;28;20049;-74
2023/07/17 02:46:51;;;;;;;3.90;3.67;;;18.60;99.90;;;19.09;80.97;101382.09;5059148;28;20363;-75
2023/07/17 02:49:19;;;;;;;2.95;2.85;;;18.70;99.90;;;19.11;80.46;101388.31;5054124;28;20106;-74
2023/07/17 02:51:49;;;;;;;2.80;2.70;;;18.70;99.90;;;19.07;80.22;101389.31;5057817;28;20059;-74
2023/07/17 02:54:17;;;;;;;3.00;2.90;;;18.70;99.90;;;19.04;80.12;101384.94;5058842;28;20437;-73
2023/07/17 02:56:46;;;;;;;2.70;2.60;;;18.60;99.90;;;19.06;79.93;101383.09;5057758;28;20605;-74
2023/07/17 02:59:14;;;;;;;2.80;2.70;;;18.60;99.90;;;19.05;79.85;101384.00;5056299;28;20487;-74
2023/07/17 03:01:43;;;;;;;3.08;2.97;;;18.60;99.90;;;19.11;80.18;101385.63;5074307;28;20041;-74
2023/07/17 03:04:11;;;;;;;2.65;2.50;;;18.60;99.90;;;19.10;80.40;101394.59;5057972;28;20045;-74
2023/07/17 03:06:40;;;;;;;3.83;3.38;;;18.70;99.90;;;19.05;80.35;101383.16;5058724;28;20494;-74
2023/07/17 03:09:10;;;;;;;2.45;2.35;;;18.60;99.90;;;19.03;80.51;101391.22;5058968;28;20059;-74
2023/07/17 03:11:38;;;;;;;2.92;2.83;;;18.60;99.90;;;18.95;80.50;101390.56;5053858;28;20053;-72
2023/07/17 03:14:06;;;;;;;7.22;6.57;;;18.50;99.90;;;19.00;80.56;101399.38;5058862;28;20049;-74
2023/07/17 03:16:35;;;;;;;2.80;2.70;;;18.60;99.90;;;19.02;80.29;101391.28;5058869;28;20063;-74
2023/07/17 03:19:03;;;;;;;2.97;2.88;;;18.60;99.90;;;19.05;80.21;101396.56;5058827;28;20417;-74
2023/07/17 03:21:32;;;;;;;2.72;2.63;;;18.70;99.90;;;18.98;80.07;101392.28;5055688;28;20080;-74
2023/07/17 03:24:05;;;;;;;6.85;3.63;;;18.60;99.90;;;18.92;79.65;101394.25;5058898;28;20073;-74
2023/07/17 03:26:35;;;;;;;3.13;3.03;;;18.50;99.90;;;18.97;79.52;101393.25;5057639;28;20045;-74
2023/07/17 03:29:04;;;;;;;4.07;3.67;;;18.50;99.90;;;18.96;79.53;101402.19;5057315;28;20494;-74
2023/07/17 03:31:35;;;;;;;;;;;18.50;99.90;;;18.93;79.45;101404.03;5071124;28;20508;-74
2023/07/17 03:34:03;;;;;;;5.13;4.63;;;18.50;99.90;;;18.87;79.18;101406.91;5055078;28;19983;-74
2023/07/17 03:36:31;;;;;;;2.80;2.70;;;18.50;99.90;;;18.93;78.99;101397.78;5055597;28;20084;-74
2023/07/17 03:39:00;;;;;;;2.40;2.30;;;18.50;99.90;;;19.03;78.59;101393.06;5054191;28;20049;-75
2023/07/17 03:41:28;;;;;;;6.28;5.00;;;18.60;99.90;;;18.96;78.25;101392.34;5070803;28;20141;-75
2023/07/17 03:44:00;;;;;;;3.17;3.00;;;18.60;99.90;;;18.91;78.34;101394.31;5054109;28;20057;-74
2023/07/17 03:46:28;;;;;;;30.85;4.90;;;18.50;99.90;;;18.91;78.13;101402.34;5053803;28;20079;-74
2023/07/17 03:48:57;;;;;;;3.05;2.95;;;18.50;99.90;;;18.85;78.26;101400.69;5067386;28;20414;-73
2023/07/17 03:51:25;;;;;;;3.53;3.40;;;18.50;99.90;;;18.87;78.48;101400.69;5070524;28;20093;-75
2023/07/17 03:53:53;;;;;;;2.83;2.72;;;18.50;99.90;;;18.74;78.66;101400.16;5051728;28;20382;-74
2023/07/17 03:56:22;;;;;;;3.92;3.63;;;18.40;99.90;;;18.68;78.85;101405.69;5053971;28;20628;-72
2023/07/17 03:58:51;;;;;;;2.90;2.80;;;18.30;99.90;;;18.77;79.14;101410.81;5051473;28;20073;-74
2023/07/17 04:01:20;;;;;;;3.00;2.90;;;18.30;99.90;;;18.78;79.13;101399.13;5070631;28;20395;-75
2023/07/17 04:03:51;;;;;;;3.30;3.10;;;18.40;99.90;;;18.88;79.08;101415.81;5062507;28;20452;-75
2023/07/17 04:06:21;;;;;;;2.83;2.72;;;18.40;99.90;;;18.90;78.92;101416.66;5053419;28;20100;-75
2023/07/17 04:08:49;;;;;;;3.10;3.00;;;18.50;99.90;;;18.96;79.13;101416.47;5054957;28;20036;-75
2023/07/17 04:11:18;;;;;;;2.65;2.55;;;18.50;99.90;;;18.97;79.03;101422.72;5053663;28;20486;-75
2023/07/17 04:13:50;;;;;;;2.72;2.63;;;18.60;99.90;;;19.04;78.78;101418.94;5063554;28;20128;-75
2023/07/17 04:16:21;;;;;;;2.78;2.67;;;18.60;99.90;;;19.03;78.72;101423.41;5054575;28;20059;-74
2023/07/17 04:18:49;;;;;;;2.80;2.70;;;18.60;99.90;;;18.95;78.27;101424.56;5053531;28;20139;-75
2023/07/17 04:21:18;;;;;;;2.88;2.78;;;18.60;99.90;;;18.95;77.42;101424.56;5051820;28;20407;-75
2023/07/17 04:23:50;;;;;;;2.95;2.75;;;18.60;99.90;;;18.90;76.66;101422.03;5070062;28;20052;-75
2023/07/17 04:26:24;;;;;;;7.95;5.55;;;18.50;99.90;;;18.87;76.31;101427.50;5053427;28;20144;-74
2023/07/17 04:28:53;;;;;;;3.00;2.88;;;18.50;99.90;;;18.82;76.19;101419.56;5049523;28;20459;-75
2023/07/17 04:31:24;;;;;;;3.08;2.95;;;18.40;99.90;;;18.89;76.49;101431.00;5053248;28;20045;-75
2023/07/17 04:33:52;;;;;;;2.63;2.53;;;18.50;99.90;;;18.92;76.59;101430.91;5051370;28;20053;-75
2023/07/17 04:36:21;;;;;;;2.53;2.42;;;18.50;99.90;;;19.01;76.72;101435.13;5069830;28;20052;-75
2023/07/17 04:38:50;;;;;;;2.95;2.85;;;18.60;99.90;;;19.01;76.44;101429.75;5053047;28;20394;-75
2023/07/17 04:41:19;;;;;;;2.80;2.70;;;18.60;99.90;;;19.09;76.54;101433.94;5052243;28;20045;-75
2023/07/17 04:43:48;;;;;;;2.50;2.40;;;18.70;99.90;;;19.13;76.56;101434.72;5069385;28;20140;-75
2023/07/17 04:46:16;;;;;;;3.45;3.25;;;18.70;99.90;;;19.19;76.60;101442.59;5053614;28;20076;-75
2023/07/17 04:48:47;;;;;;;3.30;3.15;;;18.80;99.90;;;19.15;76.56;101433.78;5049053;28;20445;-75
2023/07/17 04:51:16;;;;;;;2.70;2.60;;;18.80;99.90;;;19.12;76.74;101446.41;5052939;28;20049;-75
2023/07/17 04:53:45;;;;;;;5.95;5.15;;;18.70;99.90;;;19.14;76.87;101458.84;5050689;28;20127;-75
2023/07/17 04:56:14;;;;;;;2.70;2.60;;;18.70;99.90;;;18.91;76.93;101405.88;5053988;28;20064;-74
2023/07/17 04:58:42;;;;;;;2.80;2.70;;;18.80;99.90;;;19.27;77.09;101453.97;5052726;28;20502;-74
2023/07/17 05:01:11;;;;;;;2.78;2.67;;;18.80;99.90;;;19.37;77.04;101460.84;5051692;28;20479;-75
2023/07/17 05:03:40;;;;;;;3.08;2.97;;;18.90;99.90;;;19.39;76.91;101470.63;5069196;28;20052;-75
2023/07/17 05:06:10;;;;;;;3.05;2.85;;;19.00;99.90;;;19.20;77.26;101447.91;5052595;28;20428;-75
2023/07/17 05:08:38;;;;;;;2.73;2.63;;;19.00;99.90;;;19.40;77.28;101474.16;5053920;28;20053;-75
2023/07/17 05:11:06;;;;;;;4.03;3.72;;;19.00;99.90;;;19.31;77.04;101463.69;5048675;28;20039;-75
2023/07/17 05:13:40;;;;;;;2.70;2.60;;;19.00;99.90;;;19.34;76.83;101483.28;5052438;28;20144;-75
2023/07/17 05:16:09;;;;;;;2.97;2.88;;;19.00;99.90;;;19.31;76.31;101478.00;5050700;28;20056;-75
2023/07/17 05:18:37;;;;;;;3.05;2.85;;;18.90;99.90;;;19.28;76.04;101482.56;5068976;28;20094;-76
2023/07/17 05:21:06;;;;;;;2.67;2.58;;;18.90;99.90;;;19.32;75.96;101489.56;5053295;28;20511;-75
2023/07/17 05:23:35;;;;;;;2.70;2.60;;;18.90;99.90;;;19.32;75.76;101489.56;5051594;28;20056;-75
2023/07/17 05:26:04;;;;;;;3.13;3.03;;;18.90;99.90;;;19.36;75.55;101488.59;5068730;28;20052;-74
2023/07/17 05:28:34;;;;;;;3.53;3.35;;;18.90;99.90;;;19.37;75.52;101487.69;5051893;28;20144;-75
2023/07/17 05:31:03;;;;;;;3.42;3.10;;;18.90;99.90;;;19.35;74.99;101489.53;5048382;28;20060;-75
2023/07/17 05:33:31;;;;;;;3.00;2.90;;;19.00;99.90;;;19.46;75.09;101492.75;5051785;28;20048;-75
2023/07/17 05:36:00;;;;;;;3.03;2.92;;;19.00;99.90;;;19.51;74.65;101496.19;5049486;28;20055;-74
2023/07/17 05:38:29;;;;;;;2.63;2.53;;;19.10;99.90;;;19.62;74.50;101494.94;5068612;28;20068;-75
2023/07/17 05:41:03;;;;;;;2.80;2.70;;;19.20;99.90;;;19.66;74.46;101499.28;5051907;28;20041;-75
2023/07/17 05:43:32;;;;;;;3.30;3.20;;;19.30;99.90;;;19.70;74.21;101503.59;5053123;28;20037;-75
2023/07/17 05:46:12;;;;;;;2.70;2.60;;;19.30;99.90;;;19.78;73.52;101514.13;5049061;28;20052;-74
2023/07/17 05:48:42;;;;;;;2.50;2.40;;;19.40;99.90;;;19.72;72.89;101517.00;5051780;28;20049;-74
2023/07/17 05:51:10;;;;;;;2.97;2.88;;;19.40;99.90;;;19.86;72.54;101516.56;5053044;28;20056;-73
2023/07/17 05:53:40;;;;;;;2.67;2.58;;;19.40;99.90;;;19.80;71.69;101515.81;5051685;28;20406;-74
2023/07/17 05:56:11;;;;;;;3.08;2.97;;;19.40;99.90;;;19.88;71.52;101525.44;5051449;28;20049;-75
2023/07/17 05:58:42;;;;;;;2.78;2.67;;;19.50;99.90;;;19.81;71.24;101522.06;5060639;28;20045;-72
2023/07/17 06:01:10;;;;;;;2.78;2.67;;;19.50;99.90;;;19.82;70.97;101528.31;5052604;28;20037;-75
2023/07/17 06:03:38;;;;;;;3.13;3.00;;;19.40;99.90;;;19.93;70.57;101526.16;5052794;28;20398;-74
2023/07/17 06:06:07;;;;;;;2.80;2.70;;;19.50;99.90;;;19.91;69.95;101526.22;5052522;28;20386;-74
2023/07/17 06:08:37;;;;;;;3.10;3.00;;;19.50;99.90;;;19.98;69.23;101534.94;5052927;28;20110;-74
2023/07/17 06:11:05;;;;;;;2.55;2.45;;;19.60;99.90;;;20.02;69.07;101539.28;5052544;28;20041;-74
2023/07/17 06:13:35;;;;;;;3.03;2.92;;;19.60;99.90;;;20.05;69.13;101544.56;5052420;28;20056;-75
2023/07/17 06:16:04;;;;;;;2.60;2.50;;;19.60;99.90;;;20.08;69.00;101539.97;5050793;28;20053;-75
2023/07/17 06:18:33;;;;;;;3.03;2.92;;;19.70;99.90;;;20.05;68.08;101542.78;5067949;28;20307;-73
2023/07/17 06:21:02;;;;;;;2.90;2.80;;;19.70;99.90;;;20.17;67.84;101541.50;5047449;28;20041;-74
2023/07/17 06:23:30;;;;;;;2.95;2.75;;;19.80;99.90;;;20.31;67.55;101539.22;5052326;28;20044;-74
2023/07/17 06:26:00;;;;;;;3.60;3.30;;;19.90;99.90;;;20.43;67.60;101539.72;5052334;28;20045;-74
2023/07/17 06:28:30;;;;;;;2.95;2.85;;;20.10;99.90;;;20.25;67.01;101512.56;5052447;28;20072;-74
2023/07/17 06:31:00;;;;;;;3.00;2.90;;;20.10;99.90;;;20.54;66.93;101552.78;5052173;28;20057;-73
2023/07/17 06:33:28;;;;;;;2.70;2.60;;;20.20;99.90;;;20.61;67.04;101552.50;5052549;28;20045;-74
2023/07/17 06:35:57;;;;;;;3.45;3.35;;;20.20;99.90;;;20.74;67.05;101554.78;5052261;28;20037;-75
2023/07/17 06:38:25;;;;;;;3.78;3.58;;;20.30;99.90;;;20.84;66.55;101559.78;5052813;28;20080;-74
2023/07/17 06:40:54;;;;;;;2.40;2.30;;;20.40;99.90;;;20.80;66.08;101535.72;5052485;28;20048;-74
2023/07/17 06:43:22;;;;;;;3.00;2.90;;;20.50;99.90;;;20.82;65.12;101545.50;5052454;28;20123;-74
2023/07/17 06:45:51;;;;;;;2.90;2.80;;;20.50;99.90;;;20.84;65.52;101556.22;5052397;28;20045;-75
2023/07/17 06:48:20;;;;;;;2.97;2.83;;;20.40;99.90;;;20.84;65.82;101557.09;5052168;28;20037;-74
2023/07/17 06:50:49;;;;;;;2.80;2.70;;;20.50;99.90;;;20.81;65.18;101557.19;5052360;28;20048;-74
2023/07/17 06:53:17;;;;;;;2.75;2.65;;;20.50;99.90;;;20.91;64.98;101568.50;5052161;28;20287;-73
2023/07/17 06:55:45;;;;;;;2.80;2.70;;;20.50;99.90;;;20.96;65.13;101571.91;5052348;28;20045;-73
2023/07/17 06:58:14;;;;;;;2.63;2.53;;;20.60;99.90;;;21.04;64.93;101575.25;5052116;28;20072;-73
2023/07/17 07:00:42;;;;;;;2.53;2.42;;;20.60;99.90;;;21.14;64.19;101565.88;5052179;28;20387;-72
2023/07/17 07:03:11;;;;;;;3.55;3.28;;;20.80;99.90;;;21.19;63.67;101575.56;5067409;28;20409;-74
2023/07/17 07:05:40;;;;;;;3.25;3.15;;;20.80;99.90;;;21.13;63.53;101589.25;5051929;28;20045;-73
2023/07/17 07:08:09;;;;;;;2.80;2.70;;;20.80;99.90;;;21.15;63.57;101589.19;5048325;28;20529;-73
2023/07/17 07:10:37;;;;;;;2.88;2.78;;;20.80;99.90;;;21.22;62.95;101585.31;5055799;28;20299;-73
2023/07/17 07:13:05;;;;;;;3.53;3.42;;;20.80;99.90;;;21.15;62.57;101582.00;5055750;28;20080;-73
2023/07/17 07:15:34;;;;;;;2.88;2.75;;;20.80;99.90;;;21.21;62.82;101584.47;5055653;28;20052;-74
2023/07/17 07:18:02;;;;;;;3.70;3.50;;;20.80;99.90;;;21.28;62.65;101590.47;5055585;28;20533;-73
2023/07/17 07:20:31;;;;;;;2.55;2.45;;;20.90;99.90;;;21.47;62.66;101580.78;5055796;28;20095;-69
2023/07/17 07:23:00;;;;;;;2.60;2.50;;;21.00;99.90;;;21.62;62.30;101590.09;5056041;28;20581;-67
2023/07/17 07:25:29;;;;;;;3.05;2.85;;;21.20;99.90;;;21.74;61.68;101595.03;5055512;28;20053;-70
2023/07/17 07:27:59;;;;;;;2.47;2.38;;;21.30;99.90;;;21.84;61.22;101608.09;5054327;28;20454;-66
2023/07/17 07:30:28;;;;;;;3.10;2.90;;;21.40;99.90;;;21.87;60.35;101605.28;5055726;28;20056;-68
2023/07/17 07:32:56;;;;;;;2.90;2.80;;;21.50;99.90;;;21.92;60.76;101605.97;5051763;28;20052;-64
2023/07/17 07:35:25;;;;;;;2.65;2.55;;;21.60;99.90;;;21.97;61.58;101612.06;5055820;28;20124;-68
2023/07/17 07:37:53;;;;;;;2.80;2.70;;;21.60;99.90;;;22.02;60.91;101617.28;5055257;28;20049;-64
2023/07/17 07:40:23;;;;;;;2.67;2.58;;;21.60;99.90;;;21.97;60.86;101603.97;5055538;28;20129;-67
2023/07/17 07:42:52;;;;;;;2.67;2.58;;;21.60;99.90;;;21.99;60.31;101612.03;5055432;28;20045;-66
2023/07/17 07:45:21;;;;;;;2.58;2.47;;;21.60;99.90;;;21.93;58.98;101617.66;5055395;28;20072;-65
2023/07/17 07:47:49;;;;;;;2.85;2.65;;;21.60;99.90;;;21.91;59.34;101625.75;5053742;28;20049;-65
2023/07/17 07:50:18;;;;;;;2.67;2.58;;;21.50;99.90;;;22.06;60.17;101627.88;5054978;28;20052;-65
2023/07/17 07:52:46;;;;;;;3.45;3.33;;;21.60;99.90;;;22.06;60.27;101630.56;5055018;28;20037;-65
2023/07/17 07:55:23;;;;;;;2.88;2.78;;;21.70;99.90;;;22.24;61.39;101624.44;5052172;28;20120;-65
2023/07/17 07:57:52;;;;;;;2.60;2.50;;;21.80;99.90;;;22.18;60.41;101618.44;5055149;28;20049;-67
2023/07/17 08:00:20;;;;;;;2.85;2.75;;;21.80;99.90;;;22.12;60.29;101614.16;5055450;28;20053;-66
2023/07/17 08:02:50;;;;;;;3.38;3.10;;;21.80;99.90;;;22.11;59.51;101616.91;5055316;28;20139;-66
2023/07/17 08:05:18;;;;;;;3.03;2.92;;;21.70;99.90;;;22.07;59.10;101631.44;5054580;28;20037;-66
2023/07/17 08:07:47;;;;;;;2.55;2.45;;;21.70;99.90;;;22.16;59.73;101626.56;5054722;28;20053;-66
2023/07/17 08:10:15;;;;;;;2.97;2.88;;;21.70;99.90;;;22.18;60.45;101630.06;5053704;28;20075;-67
2023/07/17 08:12:45;;;;;;;3.78;3.58;;;21.80;99.90;;;22.23;60.40;101629.88;5051077;28;20054;-67
2023/07/17 08:15:13;;;;;;;2.80;2.70;;;21.90;99.90;;;22.31;60.26;101635.84;5054625;28;20066;-68
2023/07/17 08:17:41;;;;;;;2.60;2.50;;;21.90;99.90;;;22.37;59.63;101644.59;5054574;28;20064;-68
2023/07/17 08:20:10;;;;;;;3.03;2.92;;;22.00;99.90;;;22.37;59.48;101641.88;5052752;28;20148;-68
2023/07/17 08:22:39;;;;;;;2.40;2.30;;;22.00;99.90;;;22.44;60.52;101638.00;5054504;28;20053;-68
2023/07/17 08:25:09;;;;;;;2.58;2.47;;;22.00;99.90;;;22.51;60.39;101648.53;5054679;28;20037;-68
2023/07/17 08:27:37;;;;;;;2.60;2.50;;;22.10;99.90;;;22.61;60.63;101648.09;5054409;28;20060;-63
2023/07/17 08:30:09;;;;;;;2.50;2.40;;;22.20;99.90;;;22.51;59.04;101653.94;5054470;28;20083;-67
2023/07/17 08:32:37;;;;;;;2.70;2.60;;;22.10;99.90;;;22.40;59.50;101654.34;5049676;28;20057;-72
2023/07/17 08:35:06;;;;;;;13.73;3.33;;;22.00;99.90;;;22.29;60.62;101626.94;5050882;28;20048;-71
2023/07/17 08:37:35;;;;;;;2.80;2.70;;;22.00;99.90;;;22.33;60.61;101666.31;5054458;28;20071;-72
2023/07/17 08:40:04;;;;;;;2.63;2.53;;;21.90;99.90;;;22.31;59.12;101660.13;5054045;28;20098;-72
2023/07/17 08:42:34;;;;;;;2.83;2.73;;;21.90;99.90;;;22.17;59.09;101667.88;5054127;28;20052;-73
2023/07/17 08:45:05;;;;;;;2.97;2.78;;;21.80;99.90;;;22.10;60.02;101667.25;5053947;28;20513;-71
2023/07/17 08:47:35;;;;;;;;;;;21.70;99.90;;;22.18;61.19;101672.34;5053452;28;20136;-73
2023/07/17 08:50:06;;;;;;;3.05;2.95;;;21.80;99.90;;;22.00;60.56;101663.16;5052895;28;20038;-72
2023/07/17 08:52:35;;;;;;;2.92;2.83;;;21.60;99.90;;;22.05;61.83;101663.84;5050297;28;20037;-72
2023/07/17 08:55:03;;;;;;;3.00;2.90;;;21.60;99.90;;;22.11;61.94;101639.34;5053816;28;20065;-72
2023/07/17 08:57:33;;;;;;;2.85;2.67;;;21.70;99.90;;;22.00;61.98;101621.84;5050507;28;20111;-72
2023/07/17 09:00:04;;;;;;;16.75;3.05;;;21.70;99.90;;;22.52;62.80;101661.06;5053992;28;20033;-72
2023/07/17 09:02:32;;;;;;;;;;;22.00;99.90;;;22.69;61.72;101669.34;5054702;28;20120;-72
2023/07/17 09:05:03;;;;;;;3.17;3.08;;;22.20;99.90;;;22.85;60.91;101668.66;5053591;28;19929;-73
2023/07/17 09:07:31;;;;;;;2.60;2.50;;;22.40;99.90;;;22.77;58.72;101669.91;5053937;28;20048;-72
2023/07/17 09:10:19;;;;;;;2.85;2.75;;;22.50;99.90;;;22.79;58.08;101670.75;5053517;28;20049;-72
2023/07/17 09:12:53;;;;;;;2.60;2.50;;;22.50;99.90;;;22.86;58.89;101673.09;5052888;28;20044;-70
2023/07/17 09:15:22;;;;;;;2.47;2.38;;;22.50;99.90;;;22.88;59.92;101673.06;5049498;28;20060;-72
2023/07/17 09:17:51;;;;;;;2.75;2.65;;;22.50;99.90;;;22.72;59.09;101670.13;5049898;28;20409;-66
2023/07/17 09:20:21;;;;;;;2.55;2.45;;;22.40;99.90;;;22.61;59.68;101666.97;5052347;28;20126;-62
2023/07/17 09:22:51;;;;;;;2.78;2.67;;;22.20;99.90;;;22.56;60.08;101677.06;5053601;28;20103;-63
2023/07/17 09:25:19;;;;;;;2.67;2.57;;;22.20;99.90;;;22.56;61.22;101673.47;5053144;28;20043;-63
2023/07/17 09:27:50;;;;;;;2.60;2.50;;;22.10;99.90;;;22.57;62.32;101678.84;5053669;28;20058;-68
2023/07/17 09:30:20;;;;;;;2.40;2.30;;;22.10;99.90;;;22.30;62.99;101669.13;5052007;28;20102;-68
2023/07/17 09:32:51;;;;;;;2.42;2.33;;;22.00;99.90;;;22.31;62.57;101677.19;5052230;28;20033;-65
2023/07/17 09:35:23;;;;;;;2.80;2.70;;;21.90;99.90;;;22.34;62.56;101677.03;5049625;28;20045;-77
2023/07/17 09:37:52;;;;;;;2.65;2.55;;;22.00;99.90;;;22.39;62.89;101668.78;5053071;28;20048;-77
2023/07/17 09:40:20;;;;;;;3.03;2.85;;;22.00;99.90;;;22.49;62.10;101669.28;5053024;28;20071;-81
2023/07/17 09:42:55;;;;;;;2.80;2.70;;;22.10;99.90;;;22.45;58.11;101676.63;5052974;28;20045;-70
2023/07/17 09:45:25;;;;;;;2.80;2.70;;;22.10;99.90;;;22.56;57.70;101676.19;5052898;28;20045;-72
2023/07/17 09:47:53;;;;;;;2.28;2.17;;;22.20;99.90;;;22.75;58.06;101682.59;5052918;28;20063;-72
2023/07/17 09:50:26;;;;;;;2.40;2.30;;;22.30;99.90;;;22.96;57.72;101684.38;5049124;28;20441;-72
2023/07/17 09:52:55;;;;;;;2.90;2.70;;;22.50;99.90;;;22.98;56.77;101685.19;5053095;28;20098;-72
2023/07/17 09:55:27;;;;;;;3.10;2.90;;;22.70;99.90;;;22.53;55.90;101636.72;5052777;28;20126;-74
2023/07/17 09:58:02;;;;;;;3.28;3.10;;;22.50;99.90;;;22.74;56.11;101694.34;5052766;28;20053;-75
2023/07/17 10:00:31;;;;;;;2.90;2.80;;;22.40;99.90;;;22.81;57.21;101703.94;5052762;28;20044;-74
2023/07/17 10:03:06;;;;;;;2.85;2.75;;;22.40;99.90;;;22.97;57.88;101707.75;5049128;28;20051;-66
2023/07/17 10:05:37;;;;;;;3.60;3.40;;;22.50;99.90;;;22.98;58.12;101707.69;5052617;28;20075;-66
2023/07/17 10:08:10;;;;;;;3.35;2.78;;;22.60;99.90;;;22.95;58.11;101707.81;5052572;28;20410;-67
2023/07/17 10:10:40;;;;;;;3.40;3.20;;;22.60;99.90;;;22.84;58.72;101706.53;5052693;28;20044;-66
2023/07/17 10:13:11;;;;;;;2.92;2.75;;;22.50;99.90;;;22.76;57.42;101700.56;5048974;28;20131;-66
2023/07/17 10:15:40;;;;;;;5.35;5.05;;;22.40;99.90;;;22.43;57.64;101698.25;5049250;28;20045;-68
2023/07/17 10:18:11;;;;;;;3.55;3.20;;;22.10;99.90;;;22.37;59.70;101701.22;5052506;28;20087;-67
2023/07/17 10:20:53;;;;;;;2.65;2.55;;;22.00;99.90;;;22.51;60.61;101715.94;5052462;28;20029;-66